Time;durP1;ratioP1;P1;durP2;ratioP2;P2;SDS_P1;SDS_P2;PMS_P1;PMS_P2;Temp;Humidity;BMP_temperature;BMP_pressure;BME280_temperature;BME280_humidity;BME280_pressure;Samples;Min_cycle;Max_cycle;Signal;HPM_P1;HPM_P2
2022/10/11 00:00:31;;;;;;;;;;;;;;;9.93;50.42;101100.44;4996206;27;99374;-69
2022/10/11 00:02:57;;;;;;;;;;;;;;;9.92;50.33;101101.53;4984935;27;97950;-65
2022/10/11 00:05:24;;;;;;;;;;;;;;;9.94;50.35;101104.75;4975737;27;98720;-65
2022/10/11 00:07:50;;;;;;;;;;;;;;;9.95;50.21;101111.81;4988830;27;98079;-69
2022/10/11 00:10:17;;;;;;;;;;;;;;;9.95;50.33;101119.88;4969760;27;98179;-65
2022/10/11 00:12:43;;;;;;;;;;;;;;;9.97;50.09;101129.31;4974071;27;98124;-65
2022/10/11 00:15:12;;;;;;;;;;;;;;;9.98;50.25;101128.28;4971995;27;97958;-65
2022/10/11 00:17:38;;;;;;;;;;;;;;;10.00;50.31;101122.63;4975716;27;97820;-65
2022/10/11 00:20:04;;;;;;;;;;;;;;;10.01;49.93;101127.78;4976628;27;97973;-65
2022/10/11 00:22:31;;;;;;;;;;;;;;;10.05;49.64;101128.09;4974077;27;98037;-65
2022/10/11 00:24:58;;;;;;;;;;;;;;;10.08;50.39;101131.09;5001039;27;98085;-65
2022/10/11 00:27:24;;;;;;;;;;;;;;;10.13;50.66;101132.25;4976570;27;98273;-65
2022/10/11 00:29:50;;;;;;;;;;;;;;;10.18;50.06;101132.31;4983037;27;98031;-69
2022/10/11 00:32:17;;;;;;;;;;;;;;;10.22;50.56;101133.47;4992658;27;98381;-69
2022/10/11 00:34:43;;;;;;;;;;;;;;;10.25;50.11;101141.06;4972423;27;98447;-69
2022/10/11 00:37:09;;;;;;;;;;;;;;;10.28;50.01;101143.25;4990060;27;98195;-69
2022/10/11 00:39:35;;;;;;;;;;;;;;;10.31;49.86;101145.47;4992158;27;119365;-69
2022/10/11 00:42:01;;;;;;;;;;;;;;;10.33;50.20;101148.72;4981325;27;99921;-70
2022/10/11 00:44:28;;;;;;;;;;;;;;;10.35;49.91;101151.19;4980644;27;98619;-69
2022/10/11 00:46:58;;;;;;;;;;;;;;;10.37;50.56;101155.22;4976373;27;98908;-69
2022/10/11 00:49:30;;;;;;;;;;;;;;;10.41;49.94;101163.63;4992698;27;99908;-65
2022/10/11 00:52:00;;;;;;;;;;;;;;;10.44;50.34;101171.25;5016105;27;97994;-65
2022/10/11 00:54:28;;;;;;;;;;;;;;;10.46;50.46;101171.81;4972127;27;97791;-65
2022/10/11 00:56:57;;;;;;;;;;;;;;;10.49;49.90;101164.06;4990593;27;98460;-65
2022/10/11 00:59:26;;;;;;;;;;;;;;;10.53;49.91;101170.56;4971050;27;98205;-70
2022/10/11 01:01:52;;;;;;;;;;;;;;;10.57;50.19;101173.56;4990652;27;98072;-65
2022/10/11 01:04:18;;;;;;;;;;;;;;;10.61;50.00;101181.97;4992210;27;98174;-65
2022/10/11 01:06:44;;;;;;;;;;;;;;;10.64;50.09;101178.78;4980498;27;98179;-66
2022/10/11 01:09:10;;;;;;;;;;;;;;;10.68;50.03;101177.19;5007908;27;98364;-65
2022/10/11 01:11:38;;;;;;;;;;;;;;;10.69;50.43;101181.53;4976049;27;98159;-69
2022/10/11 01:14:26;;;;;;;;;;;;;;;10.73;50.30;101194.28;4972202;27;98085;-66
2022/10/11 01:17:04;;;;;;;;;;;;;;;10.74;50.18;101193.22;5006391;27;97901;-67
2022/10/11 01:19:39;;;;;;;;;;;;;;;10.77;50.39;101202.69;5001531;27;122552;-65
2022/10/11 01:22:27;;;;;;;;;;;;;;;10.77;50.36;101208.91;4995381;27;100528;-70
2022/10/11 01:25:18;;;;;;;;;;;;;;;10.78;50.20;101205.13;5013834;27;98030;-69
2022/10/11 01:28:09;;;;;;;;;;;;;;;10.78;49.92;101205.13;5012852;27;98130;-65
2022/10/11 01:30:35;;;;;;;;;;;;;;;10.80;50.52;101210.25;5027764;27;98886;-65
2022/10/11 01:33:16;;;;;;;;;;;;;;;10.81;50.50;101214.59;4969400;27;98127;-65
2022/10/11 01:35:46;;;;;;;;;;;;;;;10.84;50.33;101213.25;5004634;27;98113;-70
2022/10/11 01:38:34;;;;;;;;;;;;;;;10.87;50.32;101221.69;4992433;27;98034;-64
2022/10/11 01:41:24;;;;;;;;;;;;;;;10.89;50.00;101222.25;5002685;27;98349;-64
2022/10/11 01:43:52;;;;;;;;;;;;;;;10.92;50.47;101219.03;4970472;27;105811;-64
2022/10/11 01:46:19;;;;;;;;;;;;;;;10.96;50.46;101228.25;4979801;27;97852;-69
2022/10/11 01:48:49;;;;;;;;;;;;;;;10.99;50.19;101224.25;4999118;27;98012;-64
2022/10/11 01:51:16;;;;;;;;;;;;;;;11.03;50.67;101230.78;4980495;27;97965;-67
2022/10/11 01:54:07;;;;;;;;;;;;;;;11.05;50.00;101234.03;4968973;27;98008;-69
2022/10/11 01:56:48;;;;;;;;;;;;;;;11.10;50.74;101241.38;4980620;27;98047;-69
2022/10/11 01:59:41;;;;;;;;;;;;;;;11.12;50.21;101241.94;4991935;27;97953;-69
2022/10/11 02:02:24;;;;;;;;;;;;;;;11.14;50.10;101254.09;5002448;27;97871;-68
2022/10/11 02:05:24;;;;;;;;;;;;;;;11.15;50.40;101255.72;4990187;27;98168;-69
2022/10/11 02:08:02;;;;;;;;;;;;;;;11.15;50.22;101266.53;4974999;27;106053;-64
2022/10/11 02:11:02;;;;;;;;;;;;;;;11.15;50.50;101265.72;4997604;27;97994;-69
2022/10/11 02:13:38;;;;;;;;;;;;;;;11.13;50.33;101268.69;4986952;27;98142;-65
2022/10/11 02:16:08;;;;;;;;;;;;;;;11.11;50.57;101268.09;4972517;27;98100;-69
2022/10/11 02:18:36;;;;;;;;;;;;;;;11.12;50.42;101272.44;4973568;27;110764;-64
2022/10/11 02:21:04;;;;;;;;;;;;;;;11.10;50.38;101277.25;4978724;27;99557;-64
2022/10/11 02:23:33;;;;;;;;;;;;;;;11.09;50.48;101278.34;4978308;27;98216;-69
2022/10/11 02:25:59;;;;;;;;;;;;;;;11.06;50.62;101286.94;4975902;27;98016;-69
2022/10/11 02:28:28;;;;;;;;;;;;;;;11.02;50.42;101283.91;4985459;27;97877;-64
2022/10/11 02:30:54;;;;;;;;;;;;;;;10.99;50.57;101279.00;5004122;27;97839;-69
2022/10/11 02:33:28;;;;;;;;;;;;;;;10.94;50.66;101281.66;4987069;27;99201;-64
2022/10/11 02:35:58;;;;;;;;;;;;;;;10.90;50.30;101288.63;4968461;27;99868;-64
2022/10/11 02:38:30;;;;;;;;;;;;;;;10.86;50.49;101290.19;4989006;27;98361;-69
2022/10/11 02:41:00;;;;;;;;;;;;;;;10.80;50.54;101289.28;4977631;27;98007;-69
2022/10/11 02:43:29;;;;;;;;;;;;;;;10.76;50.96;101290.03;4996763;27;100160;-68
2022/10/11 02:45:59;;;;;;;;;;;;;;;10.72;50.68;101300.50;5001171;27;98118;-64
2022/10/11 02:48:28;;;;;;;;;;;;;;;10.69;50.30;101308.25;4991282;27;98075;-64
2022/10/11 02:50:55;;;;;;;;;;;;;;;10.64;50.73;101306.31;4972905;27;98114;-64
2022/10/11 02:53:22;;;;;;;;;;;;;;;10.60;50.72;101307.88;4974135;27;97860;-64
2022/10/11 02:55:48;;;;;;;;;;;;;;;10.57;50.70;101314.59;4971332;27;99502;-68
2022/10/11 02:58:14;;;;;;;;;;;;;;;10.54;50.74;101303.47;4973848;27;98301;-64
2022/10/11 03:00:41;;;;;;;;;;;;;;;10.51;50.88;101310.16;4990744;27;97938;-64
2022/10/11 03:03:07;;;;;;;;;;;;;;;10.48;50.55;101313.34;5000495;27;98340;-66
2022/10/11 03:05:39;;;;;;;;;;;;;;;10.46;50.56;101322.75;4981640;27;118878;-64
2022/10/11 03:08:06;;;;;;;;;;;;;;;10.43;50.41;101324.06;4996503;27;97943;-64
2022/10/11 03:10:33;;;;;;;;;;;;;;;10.40;50.81;101326.44;4976083;27;99482;-64
2022/10/11 03:13:00;;;;;;;;;;;;;;;10.36;50.37;101325.28;4974191;27;98377;-69
2022/10/11 03:15:27;;;;;;;;;;;;;;;10.33;50.23;101329.28;4969225;27;98073;-64
2022/10/11 03:17:53;;;;;;;;;;;;;;;10.31;50.83;101342.19;4991237;27;98497;-69
2022/10/11 03:20:19;;;;;;;;;;;;;;;10.28;50.62;101331.91;4976293;27;98307;-64
2022/10/11 03:22:45;;;;;;;;;;;;;;;10.26;50.65;101350.19;4988923;27;100009;-64
2022/10/11 03:25:11;;;;;;;;;;;;;;;10.23;50.70;101347.94;4976053;27;97911;-69
2022/10/11 03:27:38;;;;;;;;;;;;;;;10.19;50.52;101357.59;4981765;27;98880;-64
2022/10/11 03:30:04;;;;;;;;;;;;;;;10.12;50.49;101357.72;4978430;27;98124;-64
2022/10/11 03:32:30;;;;;;;;;;;;;;;10.09;50.84;101361.72;4971004;27;97974;-64
2022/10/11 03:34:57;;;;;;;;;;;;;;;10.04;50.57;101364.31;4968442;27;97929;-64
2022/10/11 03:37:24;;;;;;;;;;;;;;;9.99;51.17;101374.19;4973944;27;98586;-69
2022/10/11 03:39:50;;;;;;;;;;;;;;;9.93;51.16;101384.03;4991708;27;98112;-69
2022/10/11 03:42:16;;;;;;;;;;;;;;;9.87;50.83;101381.53;4993188;27;98442;-68
2022/10/11 03:44:42;;;;;;;;;;;;;;;9.79;51.19;101380.84;4972752;27;98012;-69
2022/10/11 03:47:08;;;;;;;;;;;;;;;9.73;51.09;101392.56;4974600;27;99252;-68
2022/10/11 03:49:34;;;;;;;;;;;;;;;9.69;50.86;101395.97;4983378;27;98346;-69
2022/10/11 03:52:00;;;;;;;;;;;;;;;9.64;50.99;101398.56;4975571;27;97931;-64
2022/10/11 03:54:26;;;;;;;;;;;;;;;9.59;51.15;101394.72;4968788;27;98078;-64
2022/10/11 03:56:52;;;;;;;;;;;;;;;9.54;51.04;101396.47;4992108;27;98374;-64
2022/10/11 03:59:19;;;;;;;;;;;;;;;9.49;50.80;101399.88;4972695;27;97937;-65
2022/10/11 04:01:45;;;;;;;;;;;;;;;9.46;51.08;101403.03;4976729;27;97764;-64
2022/10/11 04:04:11;;;;;;;;;;;;;;;9.40;50.22;101400.50;4976685;27;98112;-64
2022/10/11 04:06:37;;;;;;;;;;;;;;;9.32;50.76;101412.44;4971852;27;97928;-64
2022/10/11 04:09:03;;;;;;;;;;;;;;;9.28;50.80;101413.97;4978028;27;98229;-69
2022/10/11 04:11:30;;;;;;;;;;;;;;;9.22;50.92;101420.28;5004703;27;98124;-64
2022/10/11 04:13:57;;;;;;;;;;;;;;;9.17;51.37;101423.69;4984509;27;98425;-68
2022/10/11 04:16:24;;;;;;;;;;;;;;;9.12;50.68;101420.88;4991341;27;98771;-64
2022/10/11 04:18:50;;;;;;;;;;;;;;;9.07;51.36;101426.13;4971276;27;97962;-64
2022/10/11 04:21:16;;;;;;;;;;;;;;;9.04;51.29;101432.00;4994064;27;99761;-68
2022/10/11 04:23:42;;;;;;;;;;;;;;;9.00;50.93;101431.63;4978069;27;98011;-68
2022/10/11 04:26:09;;;;;;;;;;;;;;;8.97;51.08;101432.09;4993741;27;98300;-69
2022/10/11 04:28:35;;;;;;;;;;;;;;;8.94;50.68;101437.13;4976774;27;97956;-64
2022/10/11 04:31:03;;;;;;;;;;;;;;;8.89;51.05;101440.50;4993974;27;98253;-64
2022/10/11 04:33:29;;;;;;;;;;;;;;;8.84;50.93;101443.06;4992221;27;98375;-64
2022/10/11 04:35:55;;;;;;;;;;;;;;;8.76;50.69;101443.38;4971845;27;98104;-64
2022/10/11 04:38:22;;;;;;;;;;;;;;;8.71;50.65;101445.97;4977277;27;98058;-64
2022/10/11 04:40:48;;;;;;;;;;;;;;;8.67;51.31;101450.16;4982603;27;98256;-68
2022/10/11 04:43:16;;;;;;;;;;;;;;;8.64;51.29;101451.44;4978210;27;97838;-69
2022/10/11 04:45:43;;;;;;;;;;;;;;;8.60;50.69;101452.94;4980757;27;97901;-64
2022/10/11 04:48:09;;;;;;;;;;;;;;;8.54;51.04;101454.69;4981624;27;99242;-68
2022/10/11 04:50:35;;;;;;;;;;;;;;;8.51;51.36;101463.22;4977948;27;99803;-68
2022/10/11 04:53:01;;;;;;;;;;;;;;;8.49;51.42;101468.00;4971893;27;101174;-64
2022/10/11 04:55:28;;;;;;;;;;;;;;;8.47;50.79;101467.41;4963050;27;99471;-68
2022/10/11 04:57:54;;;;;;;;;;;;;;;8.46;51.17;101470.34;4975588;27;97886;-64
2022/10/11 05:00:21;;;;;;;;;;;;;;;8.45;50.60;101480.28;4978467;27;97798;-64
2022/10/11 05:02:47;;;;;;;;;;;;;;;8.44;51.04;101473.22;4979689;27;98460;-68
2022/10/11 05:05:16;;;;;;;;;;;;;;;8.42;51.01;101474.53;4993716;27;98237;-64
2022/10/11 05:07:43;;;;;;;;;;;;;;;8.43;50.93;101479.66;4988384;27;98236;-64
2022/10/11 05:10:10;;;;;;;;;;;;;;;8.44;51.09;101485.84;4982682;27;98328;-64
2022/10/11 05:12:36;;;;;;;;;;;;;;;8.41;50.79;101486.31;4972688;27;98013;-64
2022/10/11 05:15:02;;;;;;;;;;;;;;;8.40;50.56;101493.53;4973911;27;97949;-64
2022/10/11 05:17:29;;;;;;;;;;;;;;;8.41;51.22;101491.69;5003711;27;97843;-64
2022/10/11 05:19:55;;;;;;;;;;;;;;;8.47;50.62;101496.97;4979698;27;98101;-64
2022/10/11 05:22:21;;;;;;;;;;;;;;;8.56;50.98;101505.53;4980222;27;97889;-64
2022/10/11 05:24:47;;;;;;;;;;;;;;;8.60;51.28;101499.44;4981415;27;98563;-64
2022/10/11 05:27:13;;;;;;;;;;;;;;;8.66;50.74;101507.66;4983956;27;98497;-69
2022/10/11 05:29:40;;;;;;;;;;;;;;;8.71;50.88;101507.78;4986470;27;98271;-69
2022/10/11 05:32:06;;;;;;;;;;;;;;;8.76;51.30;101514.13;4980677;27;98028;-65
2022/10/11 05:34:32;;;;;;;;;;;;;;;8.82;51.30;101517.75;4973777;27;98086;-64
2022/10/11 05:36:58;;;;;;;;;;;;;;;8.87;51.30;101522.44;4997511;27;97790;-69
2022/10/11 05:39:24;;;;;;;;;;;;;;;8.90;51.43;101522.81;4978054;27;98010;-69
2022/10/11 05:41:51;;;;;;;;;;;;;;;8.92;51.02;101515.34;4983818;27;97919;-69
2022/10/11 05:44:18;;;;;;;;;;;;;;;8.94;50.77;101528.53;4980192;27;99185;-69
2022/10/11 05:46:45;;;;;;;;;;;;;;;8.93;50.73;101529.59;4983807;27;98660;-69
2022/10/11 05:49:13;;;;;;;;;;;;;;;8.92;51.13;101530.63;4980591;27;98405;-69
2022/10/11 05:51:39;;;;;;;;;;;;;;;8.92;50.98;101531.47;5004805;27;98295;-69
2022/10/11 05:54:05;;;;;;;;;;;;;;;8.93;51.32;101541.19;4984551;27;98335;-69
2022/10/11 05:56:32;;;;;;;;;;;;;;;8.94;50.76;101540.13;4976281;27;98056;-69
2022/10/11 05:58:59;;;;;;;;;;;;;;;8.96;50.80;101547.94;4972616;27;98411;-68
2022/10/11 06:01:25;;;;;;;;;;;;;;;8.95;50.63;101549.81;4980645;27;99933;-68
2022/10/11 06:03:52;;;;;;;;;;;;;;;8.98;50.72;101553.94;4999509;27;98082;-69
2022/10/11 06:06:18;;;;;;;;;;;;;;;8.98;51.15;101554.75;4983807;27;98384;-69
2022/10/11 06:08:45;;;;;;;;;;;;;;;8.99;50.84;101559.06;5000941;27;98335;-69
2022/10/11 06:11:16;;;;;;;;;;;;;;;9.02;50.70;101555.09;4985064;27;97867;-69
2022/10/11 06:13:43;;;;;;;;;;;;;;;9.05;51.17;101568.09;4978055;27;99283;-69
2022/10/11 06:16:09;;;;;;;;;;;;;;;9.09;50.37;101567.41;4975874;27;98231;-69
2022/10/11 06:18:36;;;;;;;;;;;;;;;9.14;50.81;101574.78;4994068;27;98935;-69
2022/10/11 06:21:02;;;;;;;;;;;;;;;9.17;50.38;101571.63;4968593;27;98096;-68
2022/10/11 06:23:29;;;;;;;;;;;;;;;9.21;50.42;101582.75;5002524;27;97937;-69
2022/10/11 06:25:57;;;;;;;;;;;;;;;9.24;50.98;101587.69;4988027;27;97832;-69
2022/10/11 06:28:26;;;;;;;;;;;;;;;9.31;50.44;101591.06;4999774;27;98180;-69
2022/10/11 06:30:52;;;;;;;;;;;;;;;9.37;50.21;101592.03;4993587;27;117450;-69
2022/10/11 06:33:19;;;;;;;;;;;;;;;9.43;50.83;101601.84;4986895;27;97987;-69
2022/10/11 06:35:46;;;;;;;;;;;;;;;9.48;50.13;101597.41;4977349;27;97974;-69
2022/10/11 06:38:12;;;;;;;;;;;;;;;9.57;50.56;101589.81;4992180;27;98529;-69
2022/10/11 06:40:38;;;;;;;;;;;;;;;9.64;50.58;101598.59;4981730;27;98102;-69
2022/10/11 06:43:04;;;;;;;;;;;;;;;9.67;50.15;101602.69;4991169;27;98419;-69
2022/10/11 06:45:31;;;;;;;;;;;;;;;9.70;50.22;101597.66;4982222;27;98248;-69
2022/10/11 06:48:00;;;;;;;;;;;;;;;9.76;50.33;101601.28;4985892;27;97931;-69
2022/10/11 06:50:26;;;;;;;;;;;;;;;9.81;50.23;101602.22;4993987;27;98587;-69
2022/10/11 06:52:54;;;;;;;;;;;;;;;9.87;50.57;101607.75;4969410;27;98179;-69
2022/10/11 06:55:22;;;;;;;;;;;;;;;9.93;50.20;101615.69;4973872;27;98074;-69
2022/10/11 06:57:48;;;;;;;;;;;;;;;9.99;50.13;101622.84;4981226;27;98392;-69
2022/10/11 07:00:14;;;;;;;;;;;;;;;10.06;50.14;101620.84;4976062;27;98090;-69
2022/10/11 07:02:40;;;;;;;;;;;;;;;10.13;50.21;101619.88;4975983;27;97837;-69
2022/10/11 07:05:07;;;;;;;;;;;;;;;10.20;49.78;101620.59;4972340;27;98326;-65
2022/10/11 07:07:33;;;;;;;;;;;;;;;10.29;50.33;101628.06;4995188;27;98393;-69
2022/10/11 07:09:59;;;;;;;;;;;;;;;10.39;50.21;101632.06;5006659;27;98787;-65
2022/10/11 07:12:25;;;;;;;;;;;;;;;10.48;49.89;101631.44;4991266;27;98037;-69
2022/10/11 07:14:51;;;;;;;;;;;;;;;10.58;50.18;101630.84;4969250;27;98053;-64
2022/10/11 07:17:17;;;;;;;;;;;;;;;10.68;50.22;101632.91;4973275;27;98059;-64
2022/10/11 07:19:43;;;;;;;;;;;;;;;10.78;50.29;101633.94;4994976;27;98745;-64
2022/10/11 07:22:09;;;;;;;;;;;;;;;10.90;49.97;101628.50;4980451;27;99660;-64
2022/10/11 07:24:35;;;;;;;;;;;;;;;11.01;49.89;101635.72;4993331;27;98070;-65
2022/10/11 07:27:02;;;;;;;;;;;;;;;11.14;49.82;101631.09;4972773;27;130461;-65
2022/10/11 07:29:28;;;;;;;;;;;;;;;11.27;49.65;101633.47;4984699;27;98196;-64
2022/10/11 07:31:54;;;;;;;;;;;;;;;11.39;49.68;101636.09;4995232;27;98452;-65
2022/10/11 07:34:21;;;;;;;;;;;;;;;11.51;49.32;101636.84;4972213;27;98043;-65
2022/10/11 07:36:47;;;;;;;;;;;;;;;11.64;49.40;101638.41;4993533;27;100478;-69
2022/10/11 07:39:15;;;;;;;;;;;;;;;11.78;49.33;101645.09;4975910;27;98323;-69
2022/10/11 07:41:41;;;;;;;;;;;;;;;11.91;49.29;101647.50;4985067;27;98018;-65
2022/10/11 07:44:07;;;;;;;;;;;;;;;12.05;49.11;101639.84;5000285;27;99468;-65
2022/10/11 07:46:33;;;;;;;;;;;;;;;12.19;48.96;101643.84;4978403;27;100114;-65
2022/10/11 07:48:59;;;;;;;;;;;;;;;12.31;48.73;101643.75;4975814;27;98276;-65
2022/10/11 07:51:26;;;;;;;;;;;;;;;12.46;49.04;101643.94;4981252;27;99391;-65
2022/10/11 07:53:54;;;;;;;;;;;;;;;12.62;48.91;101652.25;4978795;27;98079;-69
2022/10/11 07:56:24;;;;;;;;;;;;;;;12.80;48.71;101656.50;4979791;27;98165;-69
2022/10/11 07:58:51;;;;;;;;;;;;;;;12.98;48.54;101650.75;4985807;27;98070;-69
2022/10/11 08:01:18;;;;;;;;;;;;;;;13.20;48.38;101658.81;4998520;27;97898;-69
2022/10/11 08:03:44;;;;;;;;;;;;;;;13.47;48.29;101667.75;4985622;27;98162;-69
2022/10/11 08:06:10;;;;;;;;;;;;;;;13.91;47.67;101655.91;4982994;27;97927;-65
2022/10/11 08:08:36;;;;;;;;;;;;;;;14.73;47.20;101657.97;4979813;27;98945;-65
2022/10/11 08:11:03;;;;;;;;;;;;;;;15.54;46.05;101658.41;4980372;27;98167;-65
2022/10/11 08:13:28;;;;;;;;;;;;;;;15.71;45.98;101664.41;4989531;27;98124;-65
2022/10/11 08:15:55;;;;;;;;;;;;;;;15.78;46.20;101666.84;4977968;27;98060;-65
2022/10/11 08:18:21;;;;;;;;;;;;;;;16.23;46.10;101656.97;4981013;27;99263;-65
2022/10/11 08:20:48;;;;;;;;;;;;;;;16.92;45.43;101661.63;4980433;27;99676;-65
2022/10/11 08:23:15;;;;;;;;;;;;;;;18.81;43.84;101651.66;4980008;27;97994;-66
2022/10/11 08:25:43;;;;;;;;;;;;;;;23.01;40.14;101656.63;4995522;27;98495;-66
2022/10/11 08:28:09;;;;;;;;;;;;;;;27.71;36.31;101684.41;4989702;27;98192;-67
2022/10/11 08:30:36;;;;;;;;;;;;;;;31.56;34.37;101706.06;4985703;27;98042;-71
2022/10/11 08:33:03;;;;;;;;;;;;;;;34.62;33.00;101715.13;4975556;27;105774;-72
2022/10/11 08:35:30;;;;;;;;;;;;;;;37.17;32.33;101708.50;4973846;27;98069;-70
2022/10/11 08:37:57;;;;;;;;;;;;;;;39.32;31.38;101702.78;4977887;27;98001;-70
2022/10/11 08:40:23;;;;;;;;;;;;;;;41.15;31.26;101702.47;4982390;27;98571;-67
2022/10/11 08:42:57;;;;;;;;;;;;;;;42.83;30.73;101689.09;4986978;27;97917;-70
2022/10/11 08:45:31;;;;;;;;;;;;;;;44.49;30.28;101679.06;4977443;27;100064;-70
2022/10/11 08:48:16;;;;;;;;;;;;;;;45.89;30.19;101673.16;4999118;27;97881;-68
2022/10/11 08:50:43;;;;;;;;;;;;;;;46.97;29.60;101665.38;4967796;27;98310;-68
2022/10/11 08:53:50;;;;;;;;;;;;;;;47.52;29.23;101661.78;4970025;27;98231;-68
2022/10/11 08:56:19;;;;;;;;;;;;;;;48.11;28.97;101649.31;4984210;27;99939;-70
2022/10/11 08:58:51;;;;;;;;;;;;;;;48.29;28.96;101648.97;4977338;27;98043;-70
2022/10/11 09:01:24;;;;;;;;;;;;;;;47.84;29.86;101639.13;5006375;27;98371;-70
2022/10/11 09:03:50;;;;;;;;;;;;;;;44.85;33.43;101625.47;4983787;27;98458;-70
2022/10/11 09:06:55;;;;;;;;;;;;;;;45.24;33.65;101618.69;4974283;27;98155;-68
2022/10/11 09:09:40;;;;;;;;;;;;;;;48.41;29.87;101630.66;5011823;27;97934;-68
2022/10/11 09:12:19;;;;;;;;;;;;;;;48.64;29.51;101625.94;4985753;27;98161;-70
2022/10/11 09:14:57;;;;;;;;;;;;;;;49.19;29.32;101626.88;5019542;27;97981;-70
2022/10/11 09:17:37;;;;;;;;;;;;;;;49.47;28.66;101621.28;4991789;27;99948;-68
2022/10/11 09:20:12;;;;;;;;;;;;;;;47.35;31.24;101609.41;4989486;27;100086;-70
2022/10/11 09:22:48;;;;;;;;;;;;;;;45.58;33.31;101610.09;5012422;27;98070;-68
2022/10/11 09:25:20;;;;;;;;;;;;;;;49.02;29.67;101614.53;4989259;27;97983;-70
2022/10/11 09:28:10;;;;;;;;;;;;;;;50.46;28.24;101621.31;5007383;27;98178;-69
2022/10/11 09:30:50;;;;;;;;;;;;;;;50.91;27.20;101621.34;5004775;27;98556;-70
2022/10/11 09:33:22;;;;;;;;;;;;;;;50.98;27.06;101612.22;4977315;27;99545;-70
2022/10/11 09:35:50;;;;;;;;;;;;;;;50.13;27.30;101598.38;4969463;27;98093;-69
2022/10/11 09:39:01;;;;;;;;;;;;;;;46.66;31.38;101594.63;4977167;27;101975;-67
2022/10/11 09:41:54;;;;;;;;;;;;;;;44.93;33.20;101587.69;5007629;27;98864;-69
2022/10/11 09:44:24;;;;;;;;;;;;;;;46.59;31.22;101589.31;4985557;27;98010;-68
2022/10/11 09:46:52;;;;;;;;;;;;;;;46.28;31.20;101592.63;4978277;27;98018;-66
2022/10/11 09:49:20;;;;;;;;;;;;;;;45.83;31.10;101595.41;4975683;27;98055;-66
2022/10/11 09:51:58;;;;;;;;;;;;;;;47.73;28.84;101596.16;4973268;27;97841;-68
2022/10/11 09:54:45;;;;;;;;;;;;;;;47.32;29.34;101596.13;4990423;27;98211;-68
2022/10/11 09:57:28;;;;;;;;;;;;;;;47.46;28.90;101590.38;5009717;27;98121;-68
2022/10/11 10:00:23;;;;;;;;;;;;;;;47.57;28.33;101589.72;4985338;27;98094;-65
2022/10/11 10:02:53;;;;;;;;;;;;;;;46.94;28.37;101595.84;4984007;27;99584;-65
2022/10/11 10:05:21;;;;;;;;;;;;;;;46.31;29.10;101598.13;4975741;27;97975;-68
2022/10/11 10:08:19;;;;;;;;;;;;;;;44.36;30.88;101595.28;4980460;27;97835;-68
2022/10/11 10:10:55;;;;;;;;;;;;;;;42.55;32.83;101588.97;4990280;27;98088;-70
2022/10/11 10:13:39;;;;;;;;;;;;;;;40.69;34.94;101592.41;4984803;27;99472;-67
2022/10/11 10:16:10;;;;;;;;;;;;;;;39.04;36.77;101590.25;4992712;27;98000;-71
2022/10/11 10:18:57;;;;;;;;;;;;;;;37.96;37.87;101579.56;4976284;27;98221;-67
2022/10/11 10:21:34;;;;;;;;;;;;;;;36.90;38.71;101588.44;4986188;27;97935;-66
2022/10/11 10:24:06;;;;;;;;;;;;;;;35.98;39.44;101593.13;4965629;27;98107;-70
2022/10/11 10:26:32;;;;;;;;;;;;;;;35.11;40.08;101589.38;4981955;27;98235;-70
2022/10/11 10:29:07;;;;;;;;;;;;;;;33.46;42.03;101586.94;4984658;27;98026;-70
2022/10/11 10:31:35;;;;;;;;;;;;;;;31.47;43.50;101587.41;5008706;27;98032;-70
2022/10/11 10:34:01;;;;;;;;;;;;;;;30.35;44.14;101583.66;5000601;27;97802;-66
2022/10/11 10:36:34;;;;;;;;;;;;;;;30.06;43.83;101586.00;4972378;27;98065;-69
2022/10/11 10:39:06;;;;;;;;;;;;;;;29.67;43.58;101587.34;4981122;27;98569;-69
2022/10/11 10:41:32;;;;;;;;;;;;;;;29.25;43.92;101591.75;4994337;27;97939;-69
2022/10/11 10:43:59;;;;;;;;;;;;;;;29.03;43.82;101596.06;4983559;27;98650;-69
2022/10/11 10:46:28;;;;;;;;;;;;;;;28.73;43.61;101597.78;4971315;27;97831;-69
2022/10/11 10:49:19;;;;;;;;;;;;;;;28.48;43.72;101602.81;5020522;27;98439;-66
2022/10/11 10:52:04;;;;;;;;;;;;;;;28.20;43.70;101592.66;5023718;27;98077;-70
2022/10/11 10:54:54;;;;;;;;;;;;;;;27.66;44.19;101605.16;4989193;27;99703;-69
2022/10/11 10:57:34;;;;;;;;;;;;;;;27.61;43.71;101604.63;5004360;27;98350;-66
2022/10/11 11:00:21;;;;;;;;;;;;;;;27.48;43.74;101603.13;4978248;27;99061;-66
2022/10/11 11:02:56;;;;;;;;;;;;;;;27.26;43.58;101612.78;4994776;27;98589;-69
2022/10/11 11:05:43;;;;;;;;;;;;;;;27.08;43.82;101601.22;4996041;27;99910;-69
2022/10/11 11:08:15;;;;;;;;;;;;;;;27.01;43.80;101603.78;5001564;27;98150;-66
2022/10/11 11:10:50;;;;;;;;;;;;;;;26.98;43.40;101607.25;5001568;27;97965;-66
2022/10/11 11:13:30;;;;;;;;;;;;;;;27.08;43.11;101607.56;4968338;27;99920;-65
2022/10/11 11:16:14;;;;;;;;;;;;;;;27.27;42.70;101600.56;4972241;27;97983;-69
2022/10/11 11:18:59;;;;;;;;;;;;;;;27.43;42.02;101601.38;5012461;27;98186;-66
2022/10/11 11:21:35;;;;;;;;;;;;;;;27.55;41.94;101601.34;5006998;27;97858;-69
2022/10/11 11:24:31;;;;;;;;;;;;;;;27.88;41.17;101608.50;5013840;27;98575;-69
2022/10/11 11:27:08;;;;;;;;;;;;;;;27.57;41.75;101609.28;4995634;27;98149;-66
2022/10/11 11:29:47;;;;;;;;;;;;;;;27.07;42.19;101608.69;4987737;27;98063;-69
2022/10/11 11:32:28;;;;;;;;;;;;;;;26.65;42.57;101611.03;4991163;27;98043;-69
2022/10/11 11:35:00;;;;;;;;;;;;;;;26.45;42.67;101590.69;5001150;27;98231;-66
2022/10/11 11:37:31;;;;;;;;;;;;;;;26.51;42.38;101603.09;4972645;27;98401;-69
2022/10/11 11:40:20;;;;;;;;;;;;;;;26.34;42.31;101597.81;4985513;27;98943;-69
2022/10/11 11:42:49;;;;;;;;;;;;;;;26.14;42.42;101603.13;4982986;27;98223;-67
2022/10/11 11:45:21;;;;;;;;;;;;;;;25.89;42.62;101594.03;4990799;27;103338;-69
2022/10/11 11:47:53;;;;;;;;;;;;;;;25.62;42.58;101592.72;4976445;27;97869;-69
2022/10/11 11:50:23;;;;;;;;;;;;;;;25.25;42.91;101593.75;4991550;27;98174;-66
2022/10/11 11:53:06;;;;;;;;;;;;;;;24.91;43.08;101590.94;4966785;27;98231;-65
2022/10/11 11:55:41;;;;;;;;;;;;;;;24.63;43.45;101596.19;4986296;27;98256;-66
2022/10/11 11:58:35;;;;;;;;;;;;;;;24.30;43.42;101587.00;4990413;27;98453;-69
2022/10/11 12:01:09;;;;;;;;;;;;;;;23.98;43.89;101589.28;5016687;27;98038;-69
2022/10/11 12:03:41;;;;;;;;;;;;;;;23.71;43.71;101580.34;4993311;27;98215;-65
2022/10/11 12:06:15;;;;;;;;;;;;;;;23.48;44.19;101587.97;4979411;27;98267;-69
2022/10/11 12:08:42;;;;;;;;;;;;;;;23.19;44.23;101585.94;4990225;27;97995;-68
2022/10/11 12:11:24;;;;;;;;;;;;;;;22.93;44.37;101583.22;4977382;27;99490;-66
2022/10/11 12:13:51;;;;;;;;;;;;;;;22.66;44.24;101578.81;5004261;27;98026;-69
2022/10/11 12:16:17;;;;;;;;;;;;;;;22.54;44.19;101586.88;4986969;27;99448;-69
2022/10/11 12:18:56;;;;;;;;;;;;;;;21.90;44.80;101592.03;4975318;27;98328;-69
2022/10/11 12:21:27;;;;;;;;;;;;;;;21.39;45.27;101585.94;4994352;27;97729;-68
2022/10/11 12:23:54;;;;;;;;;;;;;;;21.45;44.68;101586.63;5000757;27;98006;-68
2022/10/11 12:26:37;;;;;;;;;;;;;;;21.32;44.64;101588.28;4964976;27;98258;-65
2022/10/11 12:29:24;;;;;;;;;;;;;;;20.92;45.05;101585.44;5003115;27;99057;-69
2022/10/11 12:31:59;;;;;;;;;;;;;;;20.74;45.11;101589.94;4992550;27;98786;-65
2022/10/11 12:34:35;;;;;;;;;;;;;;;20.59;45.09;101582.06;4995743;27;98262;-65
2022/10/11 12:37:21;;;;;;;;;;;;;;;20.27;45.40;101583.00;4975445;27;97806;-68
2022/10/11 12:39:50;;;;;;;;;;;;;;;20.00;45.37;101586.56;5009727;27;98889;-65
2022/10/11 12:42:35;;;;;;;;;;;;;;;19.88;45.46;101581.59;5014098;27;97889;-65
2022/10/11 12:45:13;;;;;;;;;;;;;;;20.12;44.97;101578.66;4983528;27;98108;-68
2022/10/11 12:47:55;;;;;;;;;;;;;;;20.22;44.60;101572.97;5008987;27;99901;-68
2022/10/11 12:50:59;;;;;;;;;;;;;;;20.03;44.86;101580.50;4986046;27;97955;-68
2022/10/11 12:54:23;;;;;;;;;;;;;;;20.21;44.60;101576.84;5005961;27;99158;-69
2022/10/11 12:57:21;;;;;;;;;;;;;;;20.25;44.55;101577.03;4925995;28;98146;-68
2022/10/11 12:59:47;;;;;;;;;;;;;;;20.28;44.52;101584.66;4907204;28;104201;-66